Time;durP1;ratioP1;P1;durP2;ratioP2;P2;SDS_P1;SDS_P2;PMS_P1;PMS_P2;Temp;Humidity;BMP_temperature;BMP_pressure;BME280_temperature;BME280_humidity;BME280_pressure;Samples;Min_cycle;Max_cycle;Signal;HPM_P1;HPM_P2
2022/07/18 00:01:32;;;;;;;7.75;4.43;;;17.40;99.90;;;;;;5055543;28;20051;-74
2022/07/18 00:03:58;;;;;;;6.90;3.83;;;17.30;99.90;;;;;;5055411;28;20079;-74
2022/07/18 00:06:24;;;;;;;7.20;4.40;;;17.30;99.90;;;;;;5072127;28;20147;-74
2022/07/18 00:08:50;;;;;;;6.78;4.45;;;17.30;99.90;;;;;;5055445;28;20036;-74
2022/07/18 00:11:15;;;;;;;7.20;4.25;;;17.30;99.90;;;;;;5072099;28;20123;-74
2022/07/18 00:13:41;;;;;;;7.85;4.50;;;17.30;99.90;;;;;;5071357;28;20033;-74
2022/07/18 00:16:07;;;;;;;7.60;4.40;;;17.30;99.90;;;;;;5055583;28;20044;-74
2022/07/18 00:18:32;;;;;;;9.57;4.72;;;17.20;99.90;;;;;;5055397;28;20501;-74
2022/07/18 00:20:58;;;;;;;8.15;4.80;;;17.10;99.90;;;;;;5055349;28;20390;-74
2022/07/18 00:23:24;;;;;;;10.15;5.00;;;17.10;99.90;;;;;;5055192;28;20063;-74
2022/07/18 00:25:49;;;;;;;5.75;4.40;;;17.10;99.90;;;;;;5071871;28;20046;-74
2022/07/18 00:28:15;;;;;;;7.03;4.43;;;17.10;99.90;;;;;;5071934;28;20067;-74
2022/07/18 00:30:41;;;;;;;9.57;5.05;;;17.00;99.90;;;;;;5072181;28;20405;-74
2022/07/18 00:33:07;;;;;;;7.90;4.47;;;17.00;99.90;;;;;;5071966;28;20032;-74
2022/07/18 00:35:33;;;;;;;6.32;4.43;;;17.00;99.90;;;;;;5071781;28;20394;-74
2022/07/18 00:37:59;;;;;;;7.47;4.28;;;17.00;99.90;;;;;;5071805;28;20051;-74
2022/07/18 00:40:24;;;;;;;11.88;4.30;;;17.00;99.90;;;;;;5055013;28;20083;-74
2022/07/18 00:42:50;;;;;;;7.20;4.68;;;16.90;99.90;;;;;;5071621;28;20048;-74
2022/07/18 00:45:16;;;;;;;7.93;4.78;;;16.90;99.90;;;;;;5054904;28;20032;-74
2022/07/18 00:47:41;;;;;;;5.45;4.38;;;16.80;99.90;;;;;;5071982;28;20036;-74
2022/07/18 00:50:08;;;;;;;7.85;4.70;;;16.80;99.90;;;;;;5071617;28;20390;-74
2022/07/18 00:52:34;;;;;;;9.07;4.72;;;16.70;99.90;;;;;;5071599;28;20044;-74
2022/07/18 00:55:00;;;;;;;8.13;4.40;;;16.70;99.90;;;;;;5055121;28;20036;-74
2022/07/18 00:57:27;;;;;;;8.38;5.20;;;16.70;99.90;;;;;;5055192;28;20060;-74
2022/07/18 01:02:39;;;;;;;7.68;4.78;;;16.70;99.90;;;;;;5071581;28;20040;-74
2022/07/18 01:05:06;;;;;;;8.57;4.68;;;16.70;99.90;;;;;;5071696;28;20123;-74
2022/07/18 01:07:34;;;;;;;9.07;5.10;;;16.70;99.90;;;;;;5071489;28;20037;-74
2022/07/18 01:10:00;;;;;;;7.82;4.70;;;16.80;99.90;;;;;;5054777;28;20068;-74
2022/07/18 01:12:26;;;;;;;6.10;4.32;;;16.80;99.90;;;;;;5071475;28;20137;-74
2022/07/18 01:14:52;;;;;;;8.15;4.80;;;16.80;99.90;;;;;;5071643;28;20504;-74
2022/07/18 01:17:19;;;;;;;8.13;5.05;;;16.90;99.90;;;;;;5054702;28;20072;-74
2022/07/18 01:19:45;;;;;;;10.00;5.55;;;17.00;99.90;;;;;;5054601;28;20116;-74
2022/07/18 01:22:13;;;;;;;7.40;4.70;;;17.00;99.90;;;;;;5071638;28;20071;-74
2022/07/18 01:24:39;;;;;;;10.38;5.30;;;17.00;99.90;;;;;;5071540;28;20121;-74
2022/07/18 01:27:05;;;;;;;7.35;4.70;;;17.10;99.90;;;;;;5075033;28;20036;-74
2022/07/18 01:29:31;;;;;;;7.50;5.45;;;17.10;99.90;;;;;;5058457;28;20090;-74
2022/07/18 01:32:02;;;;;;;10.15;5.95;;;17.10;99.90;;;;;;5075050;28;20128;-74
2022/07/18 01:34:28;;;;;;;7.03;5.03;;;17.10;99.90;;;;;;5058588;28;20032;-74
2022/07/18 01:36:54;;;;;;;8.95;5.72;;;17.10;99.90;;;;;;5074901;28;20090;-74
2022/07/18 01:39:19;;;;;;;6.85;5.07;;;17.10;99.90;;;;;;5074820;28;20044;-74
2022/07/18 01:41:45;;;;;;;8.38;5.40;;;17.10;99.90;;;;;;5074866;28;20075;-74
2022/07/18 01:44:11;;;;;;;9.00;5.13;;;17.00;99.90;;;;;;5058076;28;20113;-74
2022/07/18 01:46:36;;;;;;;9.48;5.40;;;17.00;99.90;;;;;;5074775;28;20123;-74
2022/07/18 01:49:02;;;;;;;7.07;5.03;;;17.00;99.90;;;;;;5074803;28;20460;-75
2022/07/18 01:51:27;;;;;;;8.35;5.20;;;17.00;99.90;;;;;;5058074;28;20120;-74
2022/07/18 01:53:58;;;;;;;8.38;5.72;;;17.00;99.90;;;;;;5057914;28;20033;-75
2022/07/18 01:56:24;;;;;;;7.45;5.00;;;17.00;99.90;;;;;;5074880;28;20045;-74
2022/07/18 01:58:49;;;;;;;9.63;5.70;;;17.00;99.90;;;;;;5057896;28;20068;-74
2022/07/18 02:01:15;;;;;;;9.68;5.88;;;17.10;99.90;;;;;;5057969;28;20044;-74
2022/07/18 02:03:41;;;;;;;9.23;5.80;;;17.20;99.90;;;;;;5074410;28;20037;-74
2022/07/18 02:06:06;;;;;;;8.57;5.88;;;17.20;99.90;;;;;;5074339;28;20117;-74
2022/07/18 02:08:32;;;;;;;9.25;5.60;;;17.20;99.90;;;;;;5074342;28;20043;-74
2022/07/18 02:10:57;;;;;;;8.43;5.53;;;17.20;99.90;;;;;;5057717;28;20032;-74
2022/07/18 02:13:23;;;;;;;10.00;5.47;;;17.20;99.90;;;;;;5057541;28;20060;-74
2022/07/18 02:15:49;;;;;;;8.48;5.72;;;17.10;99.90;;;;;;5074264;28;20124;-74
2022/07/18 02:18:15;;;;;;;8.15;5.15;;;17.10;99.90;;;;;;5074076;28;20045;-74
2022/07/18 02:20:40;;;;;;;8.43;6.03;;;17.10;99.90;;;;;;5057740;28;20489;-74
2022/07/18 02:23:07;;;;;;;8.27;6.03;;;17.10;99.90;;;;;;5074025;28;20043;-74
2022/07/18 02:25:34;;;;;;;11.13;6.22;;;17.10;99.90;;;;;;5057267;28;20040;-74
2022/07/18 02:27:59;;;;;;;8.98;5.60;;;17.20;99.90;;;;;;5057295;28;20036;-74
2022/07/18 02:30:25;;;;;;;11.90;6.25;;;17.20;99.90;;;;;;5057309;28;20039;-74
2022/07/18 02:32:50;;;;;;;9.73;7.07;;;17.20;99.90;;;;;;5073846;28;20071;-74
2022/07/18 02:35:16;;;;;;;9.73;6.53;;;17.20;99.90;;;;;;5074162;28;20040;-74
2022/07/18 02:37:43;;;;;;;8.77;6.53;;;17.10;99.90;;;;;;5073177;28;20516;-74
2022/07/18 02:40:11;;;;;;;11.13;6.70;;;17.20;99.90;;;;;;5057119;28;20493;-74
2022/07/18 02:42:37;;;;;;;8.88;6.07;;;17.20;99.90;;;;;;5073954;28;20127;-74
2022/07/18 02:45:04;;;;;;;12.65;6.60;;;17.20;99.90;;;;;;5056870;28;20131;-74
2022/07/18 02:47:30;;;;;;;10.02;6.20;;;17.20;99.90;;;;;;5073615;28;20040;-74
2022/07/18 02:49:55;;;;;;;11.98;6.57;;;17.20;99.90;;;;;;5073640;28;20044;-74
2022/07/18 02:52:21;;;;;;;11.63;6.60;;;17.20;99.90;;;;;;5073515;28;20044;-74
2022/07/18 02:54:47;;;;;;;10.00;6.75;;;17.20;99.90;;;;;;5056956;28;20035;-74
2022/07/18 02:57:12;;;;;;;10.18;6.45;;;17.10;99.90;;;;;;5073478;28;20430;-74
2022/07/18 02:59:38;;;;;;;11.48;7.03;;;17.20;99.90;;;;;;5073430;28;20040;-74
2022/07/18 03:02:04;;;;;;;9.27;6.70;;;17.10;99.90;;;;;;5073342;28;20086;-74
2022/07/18 03:04:29;;;;;;;8.82;6.40;;;17.10;99.90;;;;;;5073235;28;20036;-75
2022/07/18 03:06:55;;;;;;;8.45;6.35;;;17.10;99.90;;;;;;5073177;28;20132;-75
2022/07/18 03:09:21;;;;;;;9.05;6.50;;;17.10;99.90;;;;;;5073214;28;20032;-74
2022/07/18 03:11:47;;;;;;;11.82;6.65;;;17.00;99.90;;;;;;5073240;28;20075;-74
2022/07/18 03:14:13;;;;;;;9.70;6.57;;;17.10;99.90;;;;;;5056389;28;20523;-74
2022/07/18 03:16:39;;;;;;;9.50;6.50;;;17.10;99.90;;;;;;5056611;28;20040;-74
2022/07/18 03:19:05;;;;;;;8.23;6.45;;;17.10;99.90;;;;;;5072933;28;20128;-74
2022/07/18 03:21:30;;;;;;;10.73;6.40;;;17.10;99.90;;;;;;5056332;28;20036;-74
2022/07/18 03:23:57;;;;;;;9.85;6.45;;;17.00;99.90;;;;;;5056503;28;20119;-74
2022/07/18 03:26:22;;;;;;;9.77;6.00;;;17.00;99.90;;;;;;5072899;28;20041;-74
2022/07/18 03:28:48;;;;;;;9.80;6.43;;;17.00;99.90;;;;;;5072816;28;20568;-74
2022/07/18 03:31:14;;;;;;;9.35;6.60;;;17.00;99.90;;;;;;5072786;28;20082;-74
2022/07/18 03:33:40;;;;;;;10.23;6.40;;;17.00;99.90;;;;;;5072915;28;20493;-74
2022/07/18 03:36:05;;;;;;;9.80;6.70;;;17.00;99.90;;;;;;5072888;28;20056;-74
2022/07/18 03:38:31;;;;;;;9.35;6.57;;;17.00;99.90;;;;;;5072624;28;20052;-74
2022/07/18 03:40:57;;;;;;;8.73;6.40;;;16.90;99.90;;;;;;5072592;28;20045;-74
2022/07/18 03:43:22;;;;;;;12.68;7.05;;;16.90;99.90;;;;;;5055825;28;20108;-74
2022/07/18 03:45:48;;;;;;;10.93;6.70;;;16.90;99.90;;;;;;5072392;28;20044;-74
2022/07/18 03:48:14;;;;;;;9.45;7.18;;;16.90;99.90;;;;;;5071815;28;20059;-74
2022/07/18 03:50:39;;;;;;;8.90;6.68;;;16.90;99.90;;;;;;5072138;28;20032;-74
2022/07/18 03:53:05;;;;;;;9.35;7.13;;;16.90;99.90;;;;;;5072306;28;20051;-74
2022/07/18 03:55:30;;;;;;;10.77;6.60;;;16.90;99.90;;;;;;5072586;28;20083;-74
2022/07/18 03:57:56;;;;;;;9.63;6.15;;;16.90;99.90;;;;;;5072294;28;20409;-74
2022/07/18 04:00:22;;;;;;;13.30;6.50;;;16.90;99.90;;;;;;5055911;28;20090;-74
2022/07/18 04:02:48;;;;;;;10.95;6.38;;;16.90;99.90;;;;;;5072380;28;20525;-74
2022/07/18 04:05:15;;;;;;;9.20;6.47;;;16.90;99.90;;;;;;5072339;28;20048;-74
2022/07/18 04:07:41;;;;;;;11.70;6.32;;;16.90;99.90;;;;;;5072144;28;20072;-74
2022/07/18 04:10:08;;;;;;;8.57;6.10;;;16.90;99.90;;;;;;5072117;28;20029;-74
2022/07/18 04:12:34;;;;;;;10.07;6.20;;;17.00;99.90;;;;;;5072081;28;20037;-74
2022/07/18 04:15:00;;;;;;;11.02;6.53;;;16.90;99.90;;;;;;5071968;28;20055;-74
2022/07/18 04:17:26;;;;;;;8.10;6.38;;;16.90;99.90;;;;;;5055365;28;20095;-74
2022/07/18 04:19:51;;;;;;;13.82;6.93;;;17.00;99.90;;;;;;5071942;28;20128;-74
2022/07/18 04:22:17;;;;;;;10.50;6.70;;;17.00;99.90;;;;;;5071932;28;20048;-74
2022/07/18 04:24:43;;;;;;;8.18;6.25;;;17.00;99.90;;;;;;5072559;28;20045;-74
2022/07/18 04:27:08;;;;;;;10.15;6.80;;;17.00;99.90;;;;;;5055144;28;20127;-74
2022/07/18 04:29:36;;;;;;;9.48;6.45;;;17.00;99.90;;;;;;5055148;28;20040;-74
2022/07/18 04:32:01;;;;;;;11.05;6.70;;;17.00;99.90;;;;;;5072140;28;20040;-74
2022/07/18 04:34:27;;;;;;;9.30;5.97;;;17.00;99.90;;;;;;5071773;28;20059;-74
2022/07/18 04:36:53;;;;;;;9.70;6.30;;;17.00;99.90;;;;;;5055068;28;20074;-74
2022/07/18 04:39:18;;;;;;;7.63;6.10;;;17.00;99.90;;;;;;5055362;28;20539;-74
2022/07/18 04:41:44;;;;;;;11.98;5.65;;;17.10;99.90;;;;;;5071755;28;20489;-75
2022/07/18 04:44:10;;;;;;;8.88;5.95;;;17.00;99.90;;;;;;5071694;28;20044;-74
2022/07/18 04:46:35;;;;;;;8.25;6.03;;;17.10;99.90;;;;;;5054890;28;20397;-74
2022/07/18 04:49:01;;;;;;;12.50;6.25;;;17.00;99.90;;;;;;5071943;28;20124;-74
2022/07/18 04:51:27;;;;;;;8.50;5.65;;;17.10;99.90;;;;;;5054978;28;20036;-74
2022/07/18 04:53:54;;;;;;;10.80;5.93;;;17.10;99.90;;;;;;5054887;28;20104;-74
2022/07/18 04:56:22;;;;;;;9.00;6.03;;;17.20;99.90;;;;;;5054938;28;20493;-74
2022/07/18 04:58:48;;;;;;;10.95;5.43;;;17.20;99.90;;;;;;5054903;28;20040;-74
2022/07/18 05:01:14;;;;;;;11.23;5.88;;;17.20;99.90;;;;;;5074536;28;20039;-74
2022/07/18 05:03:40;;;;;;;12.82;6.07;;;17.20;99.90;;;;;;5075565;28;20037;-74
2022/07/18 05:06:05;;;;;;;9.10;5.45;;;17.20;99.90;;;;;;5059310;28;20036;-74
2022/07/18 05:08:31;;;;;;;13.15;6.10;;;17.20;99.90;;;;;;5075583;28;20481;-75
2022/07/18 05:10:56;;;;;;;14.30;5.90;;;17.30;99.90;;;;;;5075543;28;20037;-74
2022/07/18 05:13:22;;;;;;;10.48;5.55;;;17.30;99.90;;;;;;5075410;28;20040;-74
2022/07/18 05:15:48;;;;;;;10.35;6.00;;;17.30;99.90;;;;;;5075651;28;20041;-74
2022/07/18 05:18:13;;;;;;;11.48;6.10;;;17.40;99.90;;;;;;5058539;28;20087;-74
2022/07/18 05:20:39;;;;;;;10.05;5.53;;;17.40;99.90;;;;;;5058976;28;20079;-74
2022/07/18 05:23:04;;;;;;;14.27;6.00;;;17.30;99.90;;;;;;5058758;28;20507;-74
2022/07/18 05:25:30;;;;;;;10.10;6.32;;;17.40;99.90;;;;;;5058531;28;20033;-74
2022/07/18 05:27:56;;;;;;;10.45;5.55;;;17.40;99.90;;;;;;5075380;28;20040;-74
2022/07/18 05:30:23;;;;;;;9.82;5.53;;;17.40;99.90;;;;;;5058463;28;20527;-74
2022/07/18 05:32:49;;;;;;;13.80;5.75;;;17.40;99.90;;;;;;5076055;28;20119;-74
2022/07/18 05:35:15;;;;;;;10.35;5.30;;;17.40;99.90;;;;;;5074985;28;20032;-74
2022/07/18 05:37:41;;;;;;;9.30;5.50;;;17.50;99.90;;;;;;5074936;28;20036;-74
2022/07/18 05:40:09;;;;;;;9.35;5.35;;;17.50;99.90;;;;;;5058218;28;20127;-74
2022/07/18 05:42:35;;;;;;;9.73;4.82;;;17.60;99.90;;;;;;5059236;28;20446;-74
2022/07/18 05:45:00;;;;;;;7.50;4.70;;;17.60;99.90;;;;;;5074761;28;20549;-74
2022/07/18 05:47:26;;;;;;;9.30;4.78;;;17.70;99.90;;;;;;5074672;28;20041;-74
2022/07/18 05:49:51;;;;;;;9.48;4.78;;;17.80;99.90;;;;;;5058113;28;20068;-74
2022/07/18 05:52:17;;;;;;;9.20;4.85;;;17.90;99.90;;;;;;5074711;28;20085;-74
2022/07/18 05:54:46;;;;;;;10.02;4.57;;;18.00;99.90;;;;;;5074577;28;20041;-74
2022/07/18 05:57:11;;;;;;;8.52;3.97;;;18.10;99.90;;;;;;5074567;28;20078;-74
2022/07/18 05:59:37;;;;;;;7.32;3.72;;;18.20;99.90;;;;;;5058185;28;20079;-74
2022/07/18 06:02:02;;;;;;;6.80;3.30;;;18.20;99.90;;;;;;5074799;28;20425;-74
2022/07/18 06:04:28;;;;;;;5.80;3.83;;;18.30;99.90;;;;;;5074425;28;20041;-74
2022/07/18 06:06:54;;;;;;;9.85;3.63;;;18.30;99.90;;;;;;5074331;28;20047;-74
2022/07/18 06:09:19;;;;;;;7.68;3.78;;;18.40;99.90;;;;;;5074391;28;20044;-74
2022/07/18 06:11:45;;;;;;;7.07;3.85;;;18.50;99.90;;;;;;5056902;28;20040;-74
2022/07/18 06:14:10;;;;;;;11.73;3.90;;;18.50;99.90;;;;;;5057790;28;20076;-74
2022/07/18 06:16:36;;;;;;;7.95;3.63;;;18.60;99.90;;;;;;5074231;28;20416;-74
2022/07/18 06:19:03;;;;;;;6.10;3.83;;;18.70;99.90;;;;;;5074219;28;20128;-74
2022/07/18 06:21:28;;;;;;;8.80;3.97;;;18.70;99.90;;;;;;5057480;28;20036;-74
2022/07/18 06:23:54;;;;;;;8.60;3.50;;;18.80;99.90;;;;;;5074052;28;20105;-74
2022/07/18 06:26:20;;;;;;;5.88;3.40;;;18.90;99.90;;;;;;5057281;28;20037;-74
2022/07/18 06:28:46;;;;;;;8.98;4.00;;;19.00;99.90;;;;;;5073988;28;20109;-74
2022/07/18 06:31:15;;;;;;;8.10;3.88;;;19.00;99.90;;;;;;5074020;28;20041;-74
2022/07/18 06:33:41;;;;;;;7.68;3.90;;;19.10;99.90;;;;;;5057225;28;20039;-75
2022/07/18 06:36:08;;;;;;;9.13;3.95;;;19.10;99.90;;;;;;5057216;28;20040;-75
2022/07/18 06:38:34;;;;;;;7.97;3.88;;;19.20;99.90;;;;;;5073841;28;20064;-75
2022/07/18 06:40:59;;;;;;;7.97;3.90;;;19.30;99.90;;;;;;5073836;28;20178;-75
2022/07/18 06:43:25;;;;;;;8.13;4.10;;;19.40;99.90;;;;;;5073936;28;20131;-75
2022/07/18 06:45:52;;;;;;;11.32;4.15;;;19.40;99.90;;;;;;5057179;28;20045;-75
2022/07/18 06:48:18;;;;;;;10.15;3.97;;;19.50;99.90;;;;;;5073661;28;20032;-75
2022/07/18 06:50:43;;;;;;;9.10;4.18;;;19.60;99.90;;;;;;5056915;28;20040;-74
2022/07/18 06:53:09;;;;;;;5.93;3.60;;;19.70;99.90;;;;;;5057044;28;20123;-74
2022/07/18 06:55:35;;;;;;;6.82;3.67;;;19.70;99.90;;;;;;5073781;28;20044;-74
2022/07/18 06:58:01;;;;;;;9.60;4.00;;;19.90;99.90;;;;;;5056795;28;20529;-75
2022/07/18 07:00:26;;;;;;;6.93;3.25;;;20.00;99.90;;;;;;5073641;28;20097;-74
2022/07/18 07:02:52;;;;;;;6.70;3.40;;;20.10;99.90;;;;;;5073339;28;20492;-74
2022/07/18 07:05:20;;;;;;;8.50;3.75;;;20.20;99.90;;;;;;5073245;28;20083;-74
2022/07/18 07:07:46;;;;;;;8.77;3.20;;;20.30;99.90;;;;;;5073564;28;20052;-74
2022/07/18 07:10:12;;;;;;;10.32;4.07;;;20.40;99.90;;;;;;5073189;28;20493;-74
2022/07/18 07:12:42;;;;;;;7.70;3.50;;;20.40;99.90;;;;;;5073431;28;20032;-74
2022/07/18 07:15:11;;;;;;;7.85;3.38;;;20.50;99.90;;;;;;5057138;28;20045;-74
2022/07/18 07:17:37;;;;;;;6.35;3.10;;;20.60;99.90;;;;;;5073525;28;20123;-74
2022/07/18 07:20:05;;;;;;;6.47;3.20;;;20.80;99.90;;;;;;5072932;28;20455;-74
2022/07/18 07:22:32;;;;;;;6.63;3.05;;;20.90;99.90;;;;;;5073055;28;20105;-75
2022/07/18 07:24:57;;;;;;;8.57;3.17;;;21.00;99.90;;;;;;5072885;28;20041;-75
2022/07/18 07:27:23;;;;;;;8.05;3.63;;;21.10;99.00;;;;;;5056235;28;20036;-75
2022/07/18 07:29:48;;;;;;;8.15;3.40;;;21.20;98.90;;;;;;5072888;28;20382;-75
2022/07/18 07:32:15;;;;;;;9.98;3.15;;;21.40;98.00;;;;;;5072856;28;20497;-75
2022/07/18 07:34:41;;;;;;;10.23;3.30;;;21.50;97.60;;;;;;5056066;28;20043;-75
2022/07/18 07:37:09;;;;;;;9.50;3.58;;;21.60;97.40;;;;;;5056320;28;20048;-75
2022/07/18 07:39:34;;;;;;;6.25;3.03;;;21.80;96.80;;;;;;5056160;28;20076;-75
2022/07/18 07:42:00;;;;;;;9.55;3.13;;;21.80;97.20;;;;;;5072602;28;20536;-75
2022/07/18 07:44:25;;;;;;;8.23;2.80;;;22.00;96.90;;;;;;5072480;28;20115;-75
2022/07/18 07:46:51;;;;;;;7.35;2.80;;;22.10;96.90;;;;;;5056644;28;20075;-75
2022/07/18 07:49:16;;;;;;;5.78;2.75;;;22.30;94.70;;;;;;5072356;28;20516;-75
2022/07/18 07:51:42;;;;;;;7.20;2.78;;;22.40;95.20;;;;;;5072428;28;20033;-75
2022/07/18 07:54:08;;;;;;;13.27;3.55;;;22.60;93.30;;;;;;5072583;28;20080;-75
2022/07/18 07:56:33;;;;;;;6.95;2.65;;;22.70;93.10;;;;;;5055708;28;20496;-75
2022/07/18 07:59:01;;;;;;;4.15;2.35;;;22.90;93.80;;;;;;5072327;28;20043;-75
2022/07/18 08:01:26;;;;;;;5.80;2.20;;;23.10;94.30;;;;;;5072245;28;20513;-75
2022/07/18 08:03:52;;;;;;;6.25;1.90;;;23.30;90.00;;;;;;5072132;28;20055;-75
2022/07/18 08:06:18;;;;;;;8.38;2.10;;;23.40;83.10;;;;;;5072241;28;20032;-75
2022/07/18 08:08:44;;;;;;;6.47;2.15;;;23.50;86.70;;;;;;5072404;28;20064;-74
2022/07/18 08:11:09;;;;;;;7.07;1.83;;;23.60;84.90;;;;;;5072384;28;20036;-74
2022/07/18 08:13:35;;;;;;;8.88;1.90;;;23.60;80.30;;;;;;5055600;28;20405;-74
2022/07/18 08:16:00;;;;;;;8.80;2.00;;;23.80;75.60;;;;;;5072013;28;20044;-75
2022/07/18 08:18:26;;;;;;;7.10;2.08;;;23.90;74.00;;;;;;5055239;28;20085;-75
2022/07/18 08:20:52;;;;;;;4.20;1.35;;;24.00;75.30;;;;;;5055344;28;20047;-75
2022/07/18 08:23:17;;;;;;;11.48;2.00;;;24.20;75.20;;;;;;5071859;28;20480;-74
2022/07/18 08:25:44;;;;;;;4.78;1.70;;;24.30;71.20;;;;;;5071916;28;20043;-75
2022/07/18 08:28:11;;;;;;;4.70;1.77;;;24.30;70.80;;;;;;5055230;28;20032;-74
2022/07/18 08:30:37;;;;;;;5.68;1.73;;;24.30;69.50;;;;;;5071900;28;20036;-74
2022/07/18 08:33:03;;;;;;;2.47;1.50;;;24.40;67.90;;;;;;5055025;28;20515;-75
2022/07/18 08:35:31;;;;;;;10.10;1.98;;;24.40;65.50;;;;;;5071234;28;20033;-75
2022/07/18 08:37:57;;;;;;;6.57;1.63;;;24.50;66.40;;;;;;5071771;28;20100;-75
2022/07/18 08:40:23;;;;;;;7.82;1.70;;;24.60;66.20;;;;;;5072035;28;20120;-75
2022/07/18 08:42:51;;;;;;;6.43;1.40;;;24.80;64.00;;;;;;5071992;28;20051;-75
2022/07/18 08:45:20;;;;;;;3.97;1.15;;;25.00;63.50;;;;;;5071695;28;20040;-75
2022/07/18 08:47:46;;;;;;;5.65;1.60;;;25.10;64.60;;;;;;5071740;28;20047;-75
2022/07/18 08:50:12;;;;;;;5.78;1.83;;;25.30;64.10;;;;;;5071638;28;20036;-75
2022/07/18 08:52:38;;;;;;;3.42;1.20;;;25.50;62.80;;;;;;5055000;28;20037;-75
2022/07/18 08:55:07;;;;;;;3.80;1.35;;;25.60;62.40;;;;;;5055125;28;20110;-75
2022/07/18 08:57:32;;;;;;;4.30;1.30;;;25.80;60.50;;;;;;5071995;28;20079;-75
2022/07/18 08:59:58;;;;;;;4.82;1.50;;;25.90;59.30;;;;;;5071879;28;20393;-75
2022/07/18 09:02:27;;;;;;;5.35;1.40;;;26.00;58.40;;;;;;5054916;28;20420;-75
2022/07/18 09:04:53;;;;;;;5.65;1.30;;;26.20;58.50;;;;;;5071507;28;20040;-75
2022/07/18 09:07:30;;;;;;;5.28;1.48;;;26.30;59.10;;;;;;5054763;28;20037;-74
2022/07/18 09:10:03;;;;;;;6.00;1.55;;;26.50;58.40;;;;;;5071756;28;20037;-74
2022/07/18 09:12:32;;;;;;;4.38;1.52;;;26.60;56.80;;;;;;5072930;28;20080;-75
2022/07/18 09:15:05;;;;;;;3.47;1.20;;;26.60;57.00;;;;;;5071655;28;20467;-75
2022/07/18 09:17:34;;;;;;;4.10;1.30;;;26.60;55.90;;;;;;5055061;28;20481;-75
2022/07/18 09:20:16;;;;;;;4.90;1.48;;;26.60;54.80;;;;;;5054913;28;20079;-75
2022/07/18 09:22:49;;;;;;;4.40;1.10;;;26.70;56.00;;;;;;5071595;28;20374;-75
2022/07/18 09:25:17;;;;;;;4.93;1.50;;;26.80;54.50;;;;;;5054890;28;20048;-75
2022/07/18 09:27:45;;;;;;;7.45;1.50;;;27.00;54.00;;;;;;5071321;28;20412;-75
2022/07/18 09:30:16;;;;;;;4.35;1.30;;;27.10;52.90;;;;;;5054635;28;20044;-75
2022/07/18 09:32:46;;;;;;;8.85;1.75;;;27.30;53.00;;;;;;5054516;28;20461;-75
2022/07/18 09:35:14;;;;;;;9.55;1.38;;;27.30;52.90;;;;;;5071533;28;20036;-75
2022/07/18 09:37:51;;;;;;;5.22;1.60;;;27.40;52.80;;;;;;5071212;28;20041;-75
2022/07/18 09:40:25;;;;;;;7.93;1.73;;;27.40;52.00;;;;;;5054614;28;20124;-75
2022/07/18 09:42:57;;;;;;;6.75;1.83;;;27.50;53.60;;;;;;5071145;28;20505;-75
2022/07/18 09:45:29;;;;;;;4.23;1.57;;;27.60;52.30;;;;;;5071367;28;20048;-75
2022/07/18 09:47:56;;;;;;;;;;;27.80;52.80;;;;;;5075218;28;20040;-75
2022/07/18 09:50:24;;;;;;;4.68;1.65;;;27.90;48.90;;;;;;5074770;28;20016;-75
2022/07/18 09:53:16;;;;;;;5.32;1.75;;;28.00;51.40;;;;;;5074626;28;20041;-75
2022/07/18 09:55:53;;;;;;;5.30;1.77;;;28.20;48.90;;;;;;5057488;28;20048;-75
2022/07/18 09:58:25;;;;;;;6.05;1.70;;;28.30;51.00;;;;;;5074645;28;20435;-75
2022/07/18 10:00:52;;;;;;;5.90;1.70;;;28.40;49.10;;;;;;5074606;28;20044;-75
2022/07/18 10:03:19;;;;;;;4.32;1.80;;;28.40;48.40;;;;;;5074459;28;20040;-75
2022/07/18 10:05:46;;;;;;;3.95;1.52;;;28.50;49.40;;;;;;5074602;28;20145;-75
2022/07/18 10:08:17;;;;;;;6.50;1.75;;;28.50;49.40;;;;;;5074440;28;20043;-75
2022/07/18 10:10:45;;;;;;;4.13;1.60;;;28.50;48.00;;;;;;5074704;28;20551;-75
2022/07/18 10:13:11;;;;;;;4.20;1.60;;;28.60;49.50;;;;;;5074217;28;20037;-75
2022/07/18 10:15:40;;;;;;;5.50;1.95;;;28.90;49.80;;;;;;5057630;28;20045;-75
2022/07/18 10:18:08;;;;;;;4.53;1.90;;;28.90;47.60;;;;;;5057465;28;20079;-75
2022/07/18 10:20:44;;;;;;;4.65;1.77;;;28.90;46.90;;;;;;5074316;28;20036;-75
2022/07/18 10:23:32;;;;;;;4.40;1.80;;;28.90;46.30;;;;;;5057732;28;20493;-75
2022/07/18 10:26:23;;;;;;;16.38;3.60;;;29.00;46.90;;;;;;5074073;28;20047;-75
2022/07/18 10:28:54;;;;;;;9.50;1.58;;;29.00;46.50;;;;;;5074087;28;20039;-75
2022/07/18 10:31:25;;;;;;;10.50;1.83;;;29.20;46.50;;;;;;5057647;28;20449;-75
2022/07/18 10:33:52;;;;;;;5.13;1.65;;;29.30;46.60;;;;;;5073963;28;20048;-76
2022/07/18 10:36:19;;;;;;;3.25;1.67;;;29.40;46.50;;;;;;5073938;28;20127;-75
2022/07/18 10:39:04;;;;;;;8.75;2.10;;;29.60;45.10;;;;;;5073886;28;20044;-75
2022/07/18 10:41:29;;;;;;;5.65;1.88;;;29.70;44.90;;;;;;5073869;28;20080;-75
2022/07/18 10:43:55;;;;;;;9.57;1.95;;;29.80;44.90;;;;;;5057009;28;20122;-75
2022/07/18 10:46:21;;;;;;;3.50;1.75;;;29.90;43.50;;;;;;5073722;28;20036;-75
2022/07/18 10:48:54;;;;;;;6.45;2.10;;;30.10;43.80;;;;;;5074236;28;20083;-75
2022/07/18 10:51:28;;;;;;;4.03;2.10;;;30.20;42.70;;;;;;5073664;28;20040;-75
2022/07/18 10:53:54;;;;;;;4.80;2.30;;;30.20;42.50;;;;;;5073550;28;20048;-75
2022/07/18 10:56:20;;;;;;;5.95;2.33;;;30.30;42.80;;;;;;5073551;28;20047;-75
2022/07/18 10:58:46;;;;;;;5.85;2.30;;;30.40;41.70;;;;;;5056541;28;20059;-75
2022/07/18 11:01:17;;;;;;;4.85;2.28;;;30.50;42.10;;;;;;5073731;28;20493;-75
2022/07/18 11:03:42;;;;;;;6.05;2.47;;;30.60;40.50;;;;;;5073598;28;20075;-75
2022/07/18 11:06:08;;;;;;;5.53;2.40;;;30.70;41.80;;;;;;5073261;28;20468;-74
2022/07/18 11:08:34;;;;;;;3.78;2.20;;;30.70;41.00;;;;;;5073270;28;20043;-75
2022/07/18 11:11:03;;;;;;;3.83;1.92;;;30.70;41.30;;;;;;5073471;28;20034;-75
2022/07/18 11:13:35;;;;;;;4.57;2.22;;;30.80;42.40;;;;;;5073087;28;20409;-75
2022/07/18 11:16:13;;;;;;;3.40;2.33;;;30.90;42.30;;;;;;5073156;28;20416;-75
2022/07/18 11:18:39;;;;;;;4.97;2.00;;;30.90;41.60;;;;;;5072965;28;20080;-75
2022/07/18 11:21:20;;;;;;;7.40;2.15;;;31.00;42.00;;;;;;5073269;28;20413;-75
2022/07/18 11:23:47;;;;;;;5.38;2.40;;;31.10;43.30;;;;;;5072944;28;20087;-75
2022/07/18 11:26:22;;;;;;;4.80;2.33;;;31.20;41.30;;;;;;5073182;28;20123;-75
2022/07/18 11:28:55;;;;;;;4.60;2.50;;;31.20;41.30;;;;;;5073129;28;20037;-75
2022/07/18 11:31:21;;;;;;;4.00;2.17;;;31.30;41.70;;;;;;5073125;28;20036;-75
2022/07/18 11:33:50;;;;;;;5.35;1.90;;;31.50;40.20;;;;;;5072678;28;20555;-75
2022/07/18 11:36:22;;;;;;;4.25;2.20;;;31.70;39.70;;;;;;5072700;28;20044;-75
2022/07/18 11:38:53;;;;;;;;;;;31.70;40.10;;;;;;5073087;28;20408;-75
2022/07/18 11:41:20;;;;;;;6.30;2.28;;;31.70;38.50;;;;;;5056315;28;20285;-75
2022/07/18 11:43:49;;;;;;;4.18;2.25;;;31.60;40.20;;;;;;5055852;28;20492;-75
2022/07/18 11:46:18;;;;;;;5.03;2.40;;;31.50;40.20;;;;;;5072446;28;20117;-75
2022/07/18 11:48:47;;;;;;;5.07;2.40;;;31.40;39.20;;;;;;5072478;28;20044;-75
2022/07/18 11:51:19;;;;;;;4.13;2.38;;;31.10;39.60;;;;;;5072395;28;20401;-75
2022/07/18 11:53:47;;;;;;;4.30;2.33;;;30.90;39.00;;;;;;5055997;28;20036;-75
2022/07/18 11:56:14;;;;;;;4.90;2.55;;;30.90;41.30;;;;;;5055692;28;20505;-75
2022/07/18 11:58:41;;;;;;;2.78;2.05;;;30.80;40.20;;;;;;5072259;28;20040;-75
2022/07/18 12:01:08;;;;;;;5.70;2.35;;;30.70;40.20;;;;;;5072542;28;20040;-75
2022/07/18 12:03:35;;;;;;;3.97;2.05;;;30.60;40.40;;;;;;5072180;28;20574;-75
2022/07/18 12:06:11;;;;;;;5.32;2.17;;;30.50;40.90;;;;;;5072126;28;20036;-75
2022/07/18 12:08:42;;;;;;;5.13;2.15;;;30.40;41.50;;;;;;5055549;28;20040;-75
2022/07/18 12:11:17;;;;;;;6.87;2.53;;;30.40;41.40;;;;;;5054747;28;20037;-75
2022/07/18 12:13:47;;;;;;;16.00;3.03;;;30.40;41.10;;;;;;5072056;28;20033;-75
2022/07/18 12:16:31;;;;;;;3.78;2.38;;;30.60;41.70;;;;;;5072004;28;20465;-75
2022/07/18 12:19:14;;;;;;;7.05;2.35;;;30.90;41.70;;;;;;5071923;28;20076;-75
2022/07/18 12:21:45;;;;;;;7.05;2.10;;;31.20;42.30;;;;;;5072081;28;20497;-75
2022/07/18 12:24:25;;;;;;;4.28;1.95;;;31.40;41.10;;;;;;5071923;28;20044;-75
2022/07/18 12:27:17;;;;;;;6.15;2.10;;;31.40;40.10;;;;;;5071970;28;20564;-75
2022/07/18 12:30:04;;;;;;;;;;;31.40;39.80;;;;;;5055670;28;20072;-75
2022/07/18 12:32:38;;;;;;;5.18;2.25;;;31.20;39.80;;;;;;5055175;28;20295;-74
2022/07/18 12:35:09;;;;;;;3.75;2.22;;;31.10;41.20;;;;;;5071831;28;20043;-75
2022/07/18 12:37:35;;;;;;;5.97;2.38;;;31.10;39.70;;;;;;5055446;28;20048;-75
2022/07/18 12:40:08;;;;;;;5.75;2.78;;;31.20;40.20;;;;;;5071851;28;20044;-75
2022/07/18 12:42:36;;;;;;;4.40;2.53;;;31.40;40.20;;;;;;5072079;28;20500;-75
2022/07/18 12:45:04;;;;;;;5.70;2.67;;;31.60;39.80;;;;;;5054953;28;20524;-75
2022/07/18 12:47:30;;;;;;;4.43;2.95;;;31.90;40.00;;;;;;5071674;28;20044;-75
2022/07/18 12:49:56;;;;;;;4.85;2.63;;;32.20;38.70;;;;;;5071995;28;20033;-75